This is the latest recevied weather packets stored in our database for station/object KF7IOR. If no packets are shown the sender has not sent any weather packets the latest 10 day(s).
| Time | Temp. | Humidity | Pressure | Rain* | Wind** | Luminosity | Snow |
|---|---|---|---|---|---|---|---|
| 1777963237 | 14.44° C | 77% | 1012.6 hPa | 0 mm | - | 0 W/m² | - |
| 1777962037 | 15° C | 76% | 1012.2 hPa | 0 mm | - | 0 W/m² | - |
| 1777961439 | 15° C | 75% | 1012 hPa | 0 mm | - | 0 W/m² | - |
| 1777959637 | 16.11° C | 73% | 1011.9 hPa | 0 mm | - | 0 W/m² | - |
| 1777956353 | 18.33° C | 67% | 1011.4 hPa | 0 mm | - | 0 W/m² | - |
| 1777953649 | 20° C | 63% | 1010.8 hPa | 0 mm | - | 0 W/m² | - |
| 1777951847 | 20.56° C | 66% | 1010.1 hPa | 0 mm | - | 0 W/m² | - |
| 1777950056 | 21.67° C | 63% | 1009.8 hPa | 0 mm | - | 9 W/m² | - |
| 1777946735 | 22.78° C | 59% | 1009.6 hPa | 0 mm | - | 97 W/m² | - |
| 1777942866 | 23.89° C | 55% | 1009.7 hPa | 0 mm | - | 308 W/m² | - |
| 1777942537 | 24.44° C | 54% | 1009.7 hPa | 0 mm | - | 323 W/m² | - |
| 1777941636 | 24.44° C | 55% | 1009.8 hPa | 0 mm | - | 366 W/m² | - |
| 1777940146 | 25° C | 52% | 1009.8 hPa | 0 mm | - | 438 W/m² | - |
| 1777938034 | 24.44° C | 54% | 1010 hPa | 0 mm | - | 531 W/m² | - |
| 1777937738 | 24.44° C | 51% | 1010 hPa | 0 mm | - | 540 W/m² | - |
| 1777936835 | 24.44° C | 52% | 1010.1 hPa | 0 mm | - | 536 W/m² | - |
| 1777935667 | 23.89° C | 51% | 1010.4 hPa | 0 mm | - | 619 W/m² | - |
| 1777934758 | 23.89° C | 51% | 1010.7 hPa | 0 mm | - | 649 W/m² | - |
| 1777930247 | 21.67° C | 55% | 1011.6 hPa | 0 mm | - | 766 W/m² | - |
| 1777929640 | 21.67° C | 58% | 1011.7 hPa | 0 mm | - | 761 W/m² | - |
| 1777927550 | 20.56° C | 58% | 1012.3 hPa | 0 mm | - | 766 W/m² | - |
| 1777925135 | 19.44° C | 61% | 1012.8 hPa | 0 mm | - | 800 W/m² | - |
| 1777919735 | 16.67° C | 70% | 1013.4 hPa | 0 mm | - | 436 W/m² | - |
| 1777919447 | 16.11° C | 70% | 1013.3 hPa | 0 mm | - | 434 W/m² | - |
| 1777919136 | 16.11° C | 70% | 1013.3 hPa | 0 mm | - | 452 W/m² | - |
* Rain latest hour (hover to see other rain measurements)
** Current wind speed in m/s (hover to see current wind gust speed)